Time;durP1;ratioP1;P1;durP2;ratioP2;P2;SDS_P1;SDS_P2;PMS_P1;PMS_P2;Temp;Humidity;BMP_temperature;BMP_pressure;BME280_temperature;BME280_humidity;BME280_pressure;Samples;Min_cycle;Max_cycle;Signal;HPM_P1;HPM_P2
2022/03/15 00:01:49;;;;;;;9.38;5.03;;;6.80;63.20;;;;;;6165043;23;20029;-86
2022/03/15 00:04:15;;;;;;;8.40;5.90;;;6.80;63.30;;;;;;6164935;23;20012;-86
2022/03/15 00:06:41;;;;;;;7.88;5.18;;;6.90;63.30;;;;;;6189865;23;20104;-86
2022/03/15 00:09:06;;;;;;;11.45;6.28;;;6.80;63.20;;;;;;6216894;23;20100;-86
2022/03/15 00:11:34;;;;;;;9.88;5.72;;;6.80;63.30;;;;;;6216247;23;20449;-86
2022/03/15 00:14:02;;;;;;;10.63;6.05;;;6.80;63.40;;;;;;6188977;23;20028;-86
2022/03/15 00:16:28;;;;;;;12.43;6.53;;;6.80;63.60;;;;;;6190054;23;20016;-86
2022/03/15 00:18:53;;;;;;;7.20;5.18;;;6.80;63.70;;;;;;6189875;23;20067;-86
2022/03/15 00:21:20;;;;;;;9.32;6.03;;;6.80;63.80;;;;;;6189463;23;20012;-86
2022/03/15 00:23:46;;;;;;;10.32;6.03;;;6.80;63.90;;;;;;6190196;23;20134;-86
2022/03/15 00:26:11;;;;;;;9.07;5.13;;;6.80;63.90;;;;;;6217365;23;20048;-86
2022/03/15 00:28:37;;;;;;;7.93;5.22;;;6.80;64.00;;;;;;6218373;23;20353;-86
2022/03/15 00:31:03;;;;;;;9.18;5.18;;;6.80;63.90;;;;;;6197404;23;20095;-86
2022/03/15 00:33:30;;;;;;;10.88;5.50;;;6.70;63.80;;;;;;6198752;23;20013;-86
2022/03/15 00:35:58;;;;;;;9.48;5.43;;;6.80;63.70;;;;;;6222148;23;20055;-86
2022/03/15 00:38:25;;;;;;;7.78;4.95;;;6.70;63.30;;;;;;6189580;23;20459;-86
2022/03/15 00:40:51;;;;;;;8.73;5.32;;;6.80;63.60;;;;;;6189646;23;20012;-86
2022/03/15 00:43:17;;;;;;;7.95;4.60;;;6.70;62.90;;;;;;6189652;23;20013;-86
2022/03/15 00:45:42;;;;;;;11.02;5.45;;;6.70;62.90;;;;;;6189490;23;20066;-86
2022/03/15 00:48:09;;;;;;;9.13;5.07;;;6.70;62.80;;;;;;6190779;23;20078;-86
2022/03/15 00:50:36;;;;;;;6.30;4.90;;;6.70;62.70;;;;;;6218753;23;20039;-86
2022/03/15 00:53:03;;;;;;;7.85;4.95;;;6.70;62.70;;;;;;6191457;23;20020;-86
2022/03/15 00:55:29;;;;;;;7.75;4.68;;;6.60;62.70;;;;;;6218514;23;20016;-86
2022/03/15 00:57:54;;;;;;;9.75;4.85;;;6.60;62.80;;;;;;6218302;23;20012;-86
2022/03/15 01:00:21;;;;;;;10.48;5.90;;;6.60;62.70;;;;;;6218555;23;20024;-87
2022/03/15 01:02:48;;;;;;;9.48;4.82;;;6.60;62.70;;;;;;6191640;23;20318;-85
2022/03/15 01:05:13;;;;;;;11.15;5.50;;;6.60;62.90;;;;;;6166603;23;20019;-86
2022/03/15 01:07:39;;;;;;;6.82;5.10;;;6.50;62.90;;;;;;6191552;23;20024;-86
2022/03/15 01:10:06;;;;;;;8.20;5.07;;;6.50;63.10;;;;;;6192015;23;20019;-86
2022/03/15 01:12:32;;;;;;;7.43;4.05;;;6.50;63.30;;;;;;6218143;23;20532;-86
2022/03/15 01:14:58;;;;;;;9.90;5.35;;;6.50;63.40;;;;;;6191362;23;20044;-86
2022/03/15 01:17:25;;;;;;;6.90;4.43;;;6.50;63.60;;;;;;6218197;23;20075;-86
2022/03/15 01:19:51;;;;;;;8.88;4.93;;;6.50;63.80;;;;;;6218100;23;20337;-86
2022/03/15 01:22:16;;;;;;;10.52;5.10;;;6.50;63.80;;;;;;6191429;23;20020;-86
2022/03/15 01:24:42;;;;;;;10.10;5.68;;;6.50;63.90;;;;;;6166320;23;20017;-86
2022/03/15 01:27:08;;;;;;;7.30;4.82;;;6.60;64.10;;;;;;6218292;23;20021;-86
2022/03/15 01:29:34;;;;;;;9.25;5.50;;;6.60;64.10;;;;;;6166306;23;20035;-86
2022/03/15 01:32:00;;;;;;;8.00;5.00;;;6.60;64.30;;;;;;6191291;23;20027;-86
2022/03/15 01:34:28;;;;;;;10.35;6.25;;;6.60;64.30;;;;;;6217626;23;20027;-86
2022/03/15 01:36:53;;;;;;;8.82;5.30;;;6.60;64.40;;;;;;6191116;23;20012;-86
2022/03/15 01:39:20;;;;;;;8.88;4.78;;;6.60;64.40;;;;;;6191216;23;20380;-86
2022/03/15 01:41:46;;;;;;;11.15;5.72;;;6.60;64.60;;;;;;6190999;23;20017;-86
2022/03/15 01:44:17;;;;;;;9.15;5.63;;;6.60;64.60;;;;;;6191614;23;20020;-86
2022/03/15 01:46:45;;;;;;;9.50;5.40;;;6.60;64.80;;;;;;6217984;23;20016;-86
2022/03/15 01:49:10;;;;;;;7.75;4.50;;;6.60;64.80;;;;;;6190606;23;20060;-86
2022/03/15 01:51:40;;;;;;;8.32;4.60;;;6.60;64.70;;;;;;6190978;23;20071;-86
2022/03/15 01:54:06;;;;;;;8.77;4.60;;;6.60;64.70;;;;;;6166356;23;20016;-85
2022/03/15 01:56:32;;;;;;;10.90;5.38;;;6.60;64.80;;;;;;6191299;23;20023;-86
2022/03/15 01:58:59;;;;;;;9.73;4.93;;;6.60;64.80;;;;;;6191298;23;20012;-87
2022/03/15 02:01:25;;;;;;;10.55;5.78;;;6.50;64.80;;;;;;6168073;23;20017;-86
2022/03/15 02:03:51;;;;;;;10.77;5.53;;;6.50;64.90;;;;;;6167580;23;20459;-86
2022/03/15 02:06:17;;;;;;;10.70;5.47;;;6.50;65.20;;;;;;6217387;23;20429;-86
2022/03/15 02:08:43;;;;;;;9.82;5.43;;;6.40;65.10;;;;;;6217894;23;20020;-85
2022/03/15 02:11:08;;;;;;;10.68;5.63;;;6.40;65.30;;;;;;6190700;23;20015;-85
2022/03/15 02:13:34;;;;;;;9.88;5.20;;;6.40;65.40;;;;;;6217883;23;20115;-86
2022/03/15 02:16:01;;;;;;;6.80;4.40;;;6.40;65.50;;;;;;6217876;23;20471;-86
2022/03/15 02:18:27;;;;;;;12.60;5.97;;;6.40;65.60;;;;;;6191139;23;20021;-86
2022/03/15 02:20:54;;;;;;;8.65;5.43;;;6.40;65.70;;;;;;6217234;23;20055;-86
2022/03/15 02:23:20;;;;;;;8.68;5.13;;;6.40;65.80;;;;;;6217851;23;20021;-85
2022/03/15 02:25:45;;;;;;;7.97;4.93;;;6.40;65.90;;;;;;6190563;23;20018;-85
2022/03/15 02:28:11;;;;;;;9.30;5.25;;;6.40;66.00;;;;;;6217925;23;20380;-85
2022/03/15 02:30:36;;;;;;;7.97;5.20;;;6.50;66.10;;;;;;6217302;23;20096;-86
2022/03/15 02:33:02;;;;;;;8.52;4.60;;;6.50;66.10;;;;;;6191069;23;20052;-85
2022/03/15 02:35:28;;;;;;;7.78;4.95;;;6.50;66.10;;;;;;6190916;23;20092;-86
2022/03/15 02:37:53;;;;;;;8.82;4.68;;;6.50;66.10;;;;;;6190638;23;20020;-85
2022/03/15 02:40:19;;;;;;;10.40;5.03;;;6.50;66.00;;;;;;6190877;23;20023;-86
2022/03/15 02:42:45;;;;;;;11.68;5.53;;;6.60;66.00;;;;;;6217070;23;20012;-86
2022/03/15 02:45:10;;;;;;;9.40;4.72;;;6.60;66.00;;;;;;6190381;23;20020;-86
2022/03/15 02:47:38;;;;;;;6.97;4.70;;;6.60;65.90;;;;;;6217450;23;20020;-86
2022/03/15 02:50:04;;;;;;;6.82;4.63;;;6.60;65.90;;;;;;6217660;23;20103;-86
2022/03/15 02:52:32;;;;;;;9.52;4.93;;;6.60;65.80;;;;;;6190292;23;20448;-86
2022/03/15 02:54:58;;;;;;;7.25;4.28;;;6.60;65.70;;;;;;6166017;23;20019;-86
2022/03/15 02:57:24;;;;;;;8.77;4.80;;;6.60;65.60;;;;;;6190517;23;20052;-85
2022/03/15 02:59:51;;;;;;;9.82;4.95;;;6.60;65.50;;;;;;6217544;23;20028;-85
2022/03/15 03:02:17;;;;;;;8.95;5.18;;;6.60;65.40;;;;;;6217366;23;20060;-86
2022/03/15 03:04:43;;;;;;;8.43;4.93;;;6.70;65.50;;;;;;6190616;23;20063;-85
2022/03/15 03:07:12;;;;;;;10.25;5.07;;;6.60;65.40;;;;;;6189909;23;20016;-85
2022/03/15 03:09:38;;;;;;;9.80;4.70;;;6.70;65.40;;;;;;6217393;23;20047;-85
2022/03/15 03:12:04;;;;;;;8.52;5.60;;;6.70;65.30;;;;;;6190343;23;20016;-86
2022/03/15 03:14:30;;;;;;;8.23;4.80;;;6.60;65.30;;;;;;6217489;23;20025;-86
2022/03/15 03:16:56;;;;;;;8.48;5.03;;;6.60;65.40;;;;;;6217222;23;20013;-86
2022/03/15 03:19:23;;;;;;;8.05;5.10;;;6.60;65.60;;;;;;6190319;23;20035;-85
2022/03/15 03:21:50;;;;;;;8.70;5.22;;;6.60;65.70;;;;;;6190383;23;20504;-86
2022/03/15 03:24:19;;;;;;;7.05;4.65;;;6.60;65.70;;;;;;6217046;23;20048;-86
2022/03/15 03:26:44;;;;;;;8.70;4.80;;;6.60;65.90;;;;;;6217166;23;20016;-85
2022/03/15 03:29:10;;;;;;;11.65;6.53;;;6.60;65.90;;;;;;6190185;23;20028;-85
2022/03/15 03:31:41;;;;;;;9.23;5.97;;;6.50;66.30;;;;;;6217239;23;20023;-85
2022/03/15 03:34:08;;;;;;;11.15;5.45;;;6.60;66.10;;;;;;6190637;23;20013;-86
2022/03/15 03:36:36;;;;;;;10.45;6.47;;;6.60;66.10;;;;;;6190267;23;20023;-86
2022/03/15 03:39:05;;;;;;;17.63;8.60;;;6.60;66.20;;;;;;6165334;23;20051;-86
2022/03/15 03:41:31;;;;;;;10.25;6.35;;;6.60;66.40;;;;;;6216278;23;20428;-85
2022/03/15 03:43:57;;;;;;;12.45;6.72;;;6.50;66.60;;;;;;6190106;23;20071;-85
2022/03/15 03:46:23;;;;;;;10.27;6.28;;;6.50;66.70;;;;;;6216746;23;20021;-86
2022/03/15 03:48:50;;;;;;;14.57;7.47;;;6.60;66.80;;;;;;6190160;23;20017;-85
2022/03/15 03:51:17;;;;;;;8.38;5.95;;;6.80;66.90;;;;;;6190331;23;20547;-86
2022/03/15 03:53:42;;;;;;;11.82;8.13;;;6.60;66.70;;;;;;6190115;23;20013;-86
2022/03/15 03:56:08;;;;;;;15.48;9.93;;;6.60;66.90;;;;;;6190264;23;20140;-86
2022/03/15 03:58:34;;;;;;;11.05;6.45;;;6.60;67.00;;;;;;6190284;23;20013;-86
2022/03/15 04:01:01;;;;;;;18.45;9.68;;;6.60;67.10;;;;;;6217156;23;20360;-85
2022/03/15 04:03:28;;;;;;;16.05;8.30;;;6.60;67.20;;;;;;6217454;23;20023;-86
2022/03/15 04:05:54;;;;;;;13.27;9.20;;;6.60;67.30;;;;;;6218152;23;20065;-86
2022/03/15 04:08:20;;;;;;;18.42;10.48;;;6.60;67.30;;;;;;6218163;23;20047;-86
2022/03/15 04:10:46;;;;;;;13.80;8.88;;;6.60;67.50;;;;;;6191761;23;20048;-86
2022/03/15 04:13:18;;;;;;;14.85;8.65;;;6.60;67.50;;;;;;6216992;23;20325;-87
2022/03/15 04:15:48;;;;;;;13.35;8.48;;;6.60;67.60;;;;;;6187348;23;20001;-86
2022/03/15 04:18:13;;;;;;;15.95;7.82;;;6.60;67.50;;;;;;6217396;23;20027;-86
2022/03/15 04:20:40;;;;;;;12.15;7.75;;;6.60;67.40;;;;;;6217394;23;20005;-85
2022/03/15 04:23:06;;;;;;;11.43;6.68;;;6.60;67.30;;;;;;6217205;23;20016;-85
2022/03/15 04:25:32;;;;;;;14.68;7.43;;;6.60;67.20;;;;;;6242602;23;20001;-86
2022/03/15 04:28:00;;;;;;;14.77;8.02;;;6.90;67.30;;;;;;6242838;23;20017;-85
2022/03/15 04:30:30;;;;;;;12.27;7.38;;;6.60;67.00;;;;;;6243501;23;20005;-86
2022/03/15 04:32:56;;;;;;;10.13;7.15;;;6.60;67.00;;;;;;6235360;23;20024;-86
2022/03/15 04:35:22;;;;;;;13.30;8.13;;;6.70;66.90;;;;;;6213363;23;20052;-85
2022/03/15 04:37:49;;;;;;;10.25;6.97;;;6.60;66.90;;;;;;6211679;23;20063;-85
2022/03/15 04:40:16;;;;;;;9.95;6.93;;;6.70;66.90;;;;;;6240529;23;20017;-88
2022/03/15 04:42:41;;;;;;;12.10;7.00;;;6.60;66.80;;;;;;6239885;23;20023;-85
2022/03/15 04:45:08;;;;;;;14.70;7.53;;;6.70;66.80;;;;;;6240863;23;20005;-86
2022/03/15 04:47:33;;;;;;;9.77;6.55;;;6.60;66.70;;;;;;6210719;23;20024;-87
2022/03/15 04:49:59;;;;;;;10.43;6.38;;;6.70;66.70;;;;;;6203552;23;20023;-86
2022/03/15 04:52:25;;;;;;;10.85;7.00;;;6.60;66.60;;;;;;6237704;23;20017;-85
2022/03/15 04:54:50;;;;;;;10.05;7.03;;;6.70;66.70;;;;;;6232310;23;20017;-87
2022/03/15 04:57:16;;;;;;;11.48;6.88;;;6.60;66.70;;;;;;6209428;23;20017;-84
2022/03/15 04:59:41;;;;;;;10.75;7.10;;;6.60;66.70;;;;;;6223275;23;20039;-85
2022/03/15 05:02:07;;;;;;;10.43;6.30;;;6.60;66.80;;;;;;6202010;23;20024;-86
2022/03/15 05:04:33;;;;;;;10.05;6.38;;;6.60;66.80;;;;;;6190302;23;20016;-86
2022/03/15 05:06:59;;;;;;;12.18;7.20;;;6.60;66.80;;;;;;6216533;23;20063;-86
2022/03/15 05:09:24;;;;;;;12.13;7.40;;;6.60;66.80;;;;;;6190139;23;20031;-86
2022/03/15 05:11:50;;;;;;;11.57;7.18;;;6.60;66.80;;;;;;6213955;23;20028;-85
2022/03/15 05:14:16;;;;;;;13.32;8.10;;;6.60;66.80;;;;;;6216791;23;20031;-85
2022/03/15 05:16:41;;;;;;;11.90;8.20;;;6.70;66.80;;;;;;6235944;23;20433;-86
2022/03/15 05:19:07;;;;;;;9.98;7.28;;;6.60;66.80;;;;;;6216349;23;20020;-85
2022/03/15 05:21:33;;;;;;;16.15;9.98;;;6.70;66.90;;;;;;6189845;23;20095;-86
2022/03/15 05:23:59;;;;;;;10.88;6.95;;;6.70;66.90;;;;;;6219184;23;20040;-87
2022/03/15 05:26:24;;;;;;;11.82;6.78;;;6.70;66.90;;;;;;6219786;23;20019;-87
2022/03/15 05:28:51;;;;;;;12.23;8.55;;;6.70;66.80;;;;;;6189029;23;20064;-85
2022/03/15 05:31:21;;;;;;;10.38;7.10;;;6.70;66.80;;;;;;6189901;23;20012;-86
2022/03/15 05:33:47;;;;;;;12.88;7.35;;;6.80;66.90;;;;;;6216950;23;20345;-86
2022/03/15 05:36:14;;;;;;;13.18;8.15;;;6.80;66.80;;;;;;6217818;23;20013;-86
2022/03/15 05:39:20;;;;;;;12.55;7.97;;;6.80;66.70;;;;;;6218196;23;20352;-86
2022/03/15 05:41:46;;;;;;;15.60;8.52;;;6.80;66.80;;;;;;6190900;23;20506;-86
2022/03/15 05:44:12;;;;;;;13.38;8.32;;;6.80;66.70;;;;;;6218013;23;20087;-86
2022/03/15 05:46:38;;;;;;;12.93;9.43;;;6.80;66.80;;;;;;6218305;23;20686;-85
2022/03/15 05:49:04;;;;;;;15.13;8.50;;;6.80;66.80;;;;;;6191196;23;20017;-86
2022/03/15 05:51:30;;;;;;;11.77;8.25;;;6.80;66.90;;;;;;6190742;23;20333;-86
2022/03/15 05:53:55;;;;;;;15.38;8.52;;;6.80;66.90;;;;;;6190639;23;20103;-86
2022/03/15 05:56:21;;;;;;;13.25;8.45;;;7.00;67.00;;;;;;6191061;23;20028;-86
2022/03/15 05:58:47;;;;;;;13.48;8.57;;;6.80;66.90;;;;;;6217580;23;20008;-86
2022/03/15 06:01:13;;;;;;;13.90;9.27;;;6.80;66.80;;;;;;6217850;23;20024;-86
2022/03/15 06:03:38;;;;;;;13.98;8.48;;;6.80;66.80;;;;;;6190507;23;20457;-86
2022/03/15 06:06:04;;;;;;;16.60;9.50;;;6.80;66.80;;;;;;6217831;23;20092;-86
2022/03/15 06:08:30;;;;;;;24.05;11.40;;;6.80;66.80;;;;;;6190617;23;20051;-86
2022/03/15 06:10:57;;;;;;;21.15;10.95;;;6.80;66.90;;;;;;6191170;23;20012;-86
2022/03/15 06:13:23;;;;;;;17.58;11.10;;;6.80;67.10;;;;;;6192974;23;20020;-86
2022/03/15 06:15:48;;;;;;;15.13;10.02;;;6.80;67.20;;;;;;6190793;23;20016;-85
2022/03/15 06:18:14;;;;;;;15.52;10.13;;;7.20;67.50;;;;;;6217589;23;20036;-86
2022/03/15 06:20:40;;;;;;;14.52;9.77;;;7.10;67.60;;;;;;6191312;23;20507;-87
2022/03/15 06:23:05;;;;;;;18.95;12.07;;;6.70;67.40;;;;;;6191240;23;20062;-85
2022/03/15 06:25:31;;;;;;;17.65;12.63;;;6.90;67.50;;;;;;6216882;23;20023;-85
2022/03/15 06:27:58;;;;;;;24.15;14.88;;;7.20;67.90;;;;;;6217356;23;20066;-86
2022/03/15 06:30:27;;;;;;;26.00;16.20;;;6.70;67.80;;;;;;6190214;23;20016;-86
2022/03/15 06:32:52;;;;;;;26.77;16.52;;;6.70;68.00;;;;;;6216959;23;20043;-86
2022/03/15 06:35:19;;;;;;;27.27;17.35;;;6.70;68.30;;;;;;6217370;23;20016;-86
2022/03/15 06:37:47;;;;;;;32.45;19.55;;;6.70;68.60;;;;;;6190931;23;20021;-87
2022/03/15 06:40:15;;;;;;;27.98;18.17;;;6.70;68.90;;;;;;6190818;23;20039;-87
2022/03/15 06:42:41;;;;;;;30.30;20.80;;;6.70;69.20;;;;;;6166043;23;20021;-87
2022/03/15 06:45:08;;;;;;;26.75;17.80;;;6.70;69.30;;;;;;6190392;23;20016;-88
2022/03/15 06:47:38;;;;;;;24.00;16.20;;;6.70;69.60;;;;;;6190624;23;20025;-87
2022/03/15 06:50:07;;;;;;;22.40;14.55;;;6.70;69.70;;;;;;6190805;23;20337;-88
2022/03/15 06:52:32;;;;;;;25.90;17.20;;;6.70;69.70;;;;;;6189476;23;20095;-88
2022/03/15 06:54:58;;;;;;;28.08;17.55;;;6.70;69.70;;;;;;6191107;23;20433;-88
2022/03/15 06:57:23;;;;;;;31.55;19.55;;;6.70;69.70;;;;;;6190677;23;20017;-88
2022/03/15 06:59:49;;;;;;;31.40;21.25;;;6.70;69.80;;;;;;6191200;23;20017;-88
2022/03/15 07:02:15;;;;;;;35.00;22.88;;;6.70;70.00;;;;;;6191273;23;20036;-89
2022/03/15 07:04:41;;;;;;;33.25;21.05;;;6.70;70.20;;;;;;6218538;23;20021;-88
2022/03/15 07:07:07;;;;;;;31.17;21.58;;;6.80;70.50;;;;;;6190990;23;20471;-88
2022/03/15 07:10:12;;;;;;;36.22;24.13;;;6.80;70.70;;;;;;6217755;23;20012;-89
2022/03/15 07:12:37;;;;;;;34.43;24.00;;;6.80;71.10;;;;;;6190197;23;20453;-89
2022/03/15 07:15:05;;;;;;;41.60;29.63;;;6.80;71.00;;;;;;6189706;23;20013;-86
2022/03/15 07:17:31;;;;;;;46.42;30.42;;;6.80;71.30;;;;;;6165494;23;20495;-87
2022/03/15 07:19:58;;;;;;;41.00;28.92;;;6.80;71.50;;;;;;6189957;23;20016;-87
2022/03/15 07:22:25;;;;;;;46.05;25.95;;;6.80;71.70;;;;;;6190299;23;20020;-87
2022/03/15 07:24:51;;;;;;;40.00;26.33;;;6.80;71.90;;;;;;6217103;23;20089;-87
2022/03/15 07:27:17;;;;;;;35.75;25.05;;;6.80;72.50;;;;;;6189952;23;20052;-86
2022/03/15 07:29:43;;;;;;;38.80;24.52;;;7.10;72.40;;;;;;6190063;23;20024;-85
2022/03/15 07:32:09;;;;;;;34.55;23.08;;;6.90;72.40;;;;;;6217728;23;20012;-85
2022/03/15 07:34:35;;;;;;;37.35;23.63;;;6.80;72.40;;;;;;6190248;23;20028;-84
2022/03/15 07:37:01;;;;;;;38.33;24.35;;;6.80;72.60;;;;;;6217045;23;20021;-85
2022/03/15 07:39:27;;;;;;;36.85;24.70;;;6.90;72.70;;;;;;6190492;23;20463;-85
2022/03/15 07:41:53;;;;;;;33.67;22.58;;;6.90;72.70;;;;;;6216809;23;20021;-85
2022/03/15 07:44:19;;;;;;;34.80;23.50;;;6.90;72.80;;;;;;6217195;23;20377;-85
2022/03/15 07:46:48;;;;;;;38.17;24.08;;;6.90;73.00;;;;;;6190163;23;20020;-85
2022/03/15 07:49:21;;;;;;;42.50;24.17;;;7.20;73.20;;;;;;6217241;23;20008;-85
2022/03/15 07:51:47;;;;;;;34.45;23.63;;;7.00;73.10;;;;;;6217339;23;20019;-85
2022/03/15 07:54:15;;;;;;;41.60;25.77;;;7.00;73.10;;;;;;6190284;23;20052;-85
2022/03/15 07:56:41;;;;;;;34.22;23.92;;;7.00;73.30;;;;;;6190028;23;20016;-85
2022/03/15 07:59:07;;;;;;;37.38;25.25;;;7.00;73.20;;;;;;6190222;23;20012;-85
2022/03/15 08:01:33;;;;;;;39.97;25.50;;;7.00;73.30;;;;;;6189854;23;20020;-85
2022/03/15 08:03:59;;;;;;;35.28;24.33;;;7.00;73.40;;;;;;6216701;23;20047;-85
2022/03/15 08:06:24;;;;;;;33.50;24.15;;;7.00;73.40;;;;;;6189482;23;20506;-84
2022/03/15 08:08:53;;;;;;;32.33;21.52;;;7.00;73.60;;;;;;6216221;23;20088;-84
2022/03/15 08:11:19;;;;;;;33.78;23.08;;;7.00;73.70;;;;;;6189526;23;20433;-84
2022/03/15 08:13:45;;;;;;;33.60;24.13;;;7.10;73.80;;;;;;6190061;23;20017;-84
2022/03/15 08:16:10;;;;;;;36.00;26.38;;;7.10;73.80;;;;;;6189429;23;20334;-84
2022/03/15 08:18:36;;;;;;;38.28;26.08;;;7.10;73.80;;;;;;6190020;23;20060;-87
2022/03/15 08:21:02;;;;;;;40.85;27.25;;;7.10;73.80;;;;;;6189690;23;20040;-86
2022/03/15 08:23:28;;;;;;;35.60;26.58;;;7.40;74.10;;;;;;6216782;23;20016;-86
2022/03/15 08:25:55;;;;;;;38.47;26.73;;;7.20;74.00;;;;;;6189850;23;20015;-87
2022/03/15 08:28:24;;;;;;;36.92;25.10;;;7.20;74.20;;;;;;6216467;23;20394;-86
2022/03/15 08:30:50;;;;;;;35.88;26.15;;;7.30;74.30;;;;;;6216310;23;20024;-87
2022/03/15 08:33:16;;;;;;;40.80;26.08;;;7.30;74.30;;;;;;6165286;23;20047;-87
2022/03/15 08:35:42;;;;;;;37.60;25.85;;;7.30;74.30;;;;;;6189706;23;20021;-84
2022/03/15 08:38:08;;;;;;;40.75;27.08;;;7.30;74.30;;;;;;6190067;23;20468;-84
2022/03/15 08:40:34;;;;;;;38.65;25.30;;;7.30;74.40;;;;;;6216370;23;20306;-84
2022/03/15 08:43:00;;;;;;;40.50;26.58;;;7.40;74.40;;;;;;6216986;23;20027;-84
2022/03/15 08:45:26;;;;;;;34.28;24.95;;;7.40;74.50;;;;;;6164937;23;20365;-84
2022/03/15 08:47:52;;;;;;;36.47;24.88;;;7.40;74.40;;;;;;6216613;23;20020;-84
2022/03/15 08:50:19;;;;;;;35.22;25.25;;;7.40;74.50;;;;;;6189708;23;20376;-84
2022/03/15 08:52:45;;;;;;;34.08;24.75;;;7.50;74.60;;;;;;6189705;23;20028;-85
2022/03/15 08:55:11;;;;;;;36.55;27.02;;;7.50;74.50;;;;;;6216857;23;20009;-84
2022/03/15 08:57:37;;;;;;;40.63;27.20;;;7.50;74.50;;;;;;6189573;23;20098;-85
2022/03/15 09:00:06;;;;;;;38.08;26.83;;;7.60;74.60;;;;;;6192042;23;20013;-85
2022/03/15 09:02:31;;;;;;;36.50;25.98;;;7.60;74.70;;;;;;6219401;23;20020;-85
2022/03/15 09:04:57;;;;;;;35.75;25.75;;;7.70;74.60;;;;;;6216385;23;20020;-85
2022/03/15 09:07:23;;;;;;;37.85;27.17;;;7.90;74.70;;;;;;6163998;23;20016;-86
2022/03/15 09:09:48;;;;;;;37.33;25.42;;;7.70;74.60;;;;;;6218329;23;20087;-86
2022/03/15 09:12:16;;;;;;;39.17;25.33;;;7.70;74.60;;;;;;6218065;23;20024;-85
2022/03/15 09:14:41;;;;;;;36.25;24.88;;;8.00;74.60;;;;;;6218101;23;20464;-85
2022/03/15 09:17:07;;;;;;;33.50;24.45;;;7.80;74.40;;;;;;6192218;23;20021;-85
2022/03/15 09:19:33;;;;;;;34.70;26.15;;;7.90;74.40;;;;;;6191784;23;20019;-85
2022/03/15 09:22:02;;;;;;;34.53;25.00;;;7.80;74.70;;;;;;6191968;23;20095;-85
2022/03/15 09:24:30;;;;;;;37.72;24.63;;;7.90;74.50;;;;;;6192375;23;20453;-86
2022/03/15 09:26:55;;;;;;;34.15;24.88;;;7.90;74.50;;;;;;6192435;23;20020;-85
2022/03/15 09:29:21;;;;;;;37.80;25.95;;;8.00;74.60;;;;;;6218567;23;20492;-85
2022/03/15 09:31:47;;;;;;;33.15;24.40;;;8.00;74.70;;;;;;6218135;23;20016;-86
2022/03/15 09:34:12;;;;;;;36.15;25.13;;;8.00;74.70;;;;;;6190873;23;20019;-86
2022/03/15 09:36:39;;;;;;;37.30;25.02;;;8.00;74.60;;;;;;6191289;23;20035;-85
2022/03/15 09:39:09;;;;;;;36.80;24.77;;;8.10;75.10;;;;;;6191666;23;20023;-85
2022/03/15 09:41:38;;;;;;;34.05;24.17;;;8.10;74.60;;;;;;6217950;23;20043;-84
2022/03/15 09:44:07;;;;;;;34.42;24.58;;;8.20;74.60;;;;;;6219291;23;20031;-85
2022/03/15 09:46:42;;;;;;;34.60;23.90;;;8.20;74.60;;;;;;6221002;23;20012;-85
2022/03/15 09:49:07;;;;;;;32.33;22.92;;;8.20;74.50;;;;;;6212028;23;19996;-85
2022/03/15 09:51:35;;;;;;;29.15;22.13;;;8.30;74.40;;;;;;6214928;23;20091;-84
2022/03/15 09:54:03;;;;;;;31.63;24.55;;;8.30;74.30;;;;;;6212538;23;20027;-85
2022/03/15 09:56:29;;;;;;;34.78;23.48;;;8.40;74.40;;;;;;6240813;23;20012;-85
2022/03/15 09:58:55;;;;;;;31.48;23.17;;;8.40;74.30;;;;;;6223308;23;20024;-85
2022/03/15 10:01:20;;;;;;;29.48;22.60;;;8.40;74.20;;;;;;6217967;23;20016;-86
2022/03/15 10:03:47;;;;;;;31.00;23.77;;;8.50;74.10;;;;;;6191252;23;20088;-85
2022/03/15 10:06:14;;;;;;;31.25;21.23;;;8.60;74.10;;;;;;6190987;23;20012;-85
2022/03/15 10:08:40;;;;;;;27.95;21.42;;;8.60;74.00;;;;;;6166532;23;20047;-86
2022/03/15 10:11:07;;;;;;;29.15;22.90;;;8.60;73.80;;;;;;6218232;23;20036;-85
2022/03/15 10:13:33;;;;;;;28.90;21.88;;;8.70;73.80;;;;;;6217790;23;20019;-86
2022/03/15 10:16:00;;;;;;;29.13;22.17;;;8.70;73.70;;;;;;6217589;23;20502;-86
2022/03/15 10:18:27;;;;;;;26.75;21.05;;;9.10;73.80;;;;;;6218042;23;20349;-85
2022/03/15 10:20:53;;;;;;;27.55;20.00;;;8.90;73.70;;;;;;6217376;23;20024;-85
2022/03/15 10:23:24;;;;;;;26.23;20.33;;;8.90;73.40;;;;;;6218101;23;20020;-86
2022/03/15 10:25:51;;;;;;;26.75;19.60;;;9.00;73.20;;;;;;6219712;23;20016;-86
2022/03/15 10:28:18;;;;;;;25.77;19.50;;;9.00;73.00;;;;;;6191096;23;20047;-85
2022/03/15 10:30:45;;;;;;;29.35;20.65;;;9.00;72.80;;;;;;6191542;23;20023;-85
2022/03/15 10:33:12;;;;;;;22.73;17.70;;;9.10;72.70;;;;;;6218166;23;20023;-86
2022/03/15 10:35:47;;;;;;;23.77;18.83;;;9.20;72.60;;;;;;6190784;23;20021;-86
2022/03/15 10:38:13;;;;;;;30.42;20.10;;;9.20;72.30;;;;;;6217956;23;20341;-85
2022/03/15 10:40:45;;;;;;;26.65;19.75;;;9.30;72.00;;;;;;6217509;23;20017;-86
2022/03/15 10:43:17;;;;;;;23.67;18.38;;;9.40;71.90;;;;;;6190491;23;20024;-85
2022/03/15 10:45:50;;;;;;;28.00;18.77;;;9.50;71.90;;;;;;6190866;23;20441;-86
2022/03/15 10:48:31;;;;;;;24.33;18.02;;;9.40;71.70;;;;;;6217604;23;20071;-86
2022/03/15 10:50:57;;;;;;;28.85;18.27;;;9.50;71.40;;;;;;6190692;23;20024;-85
2022/03/15 10:53:25;;;;;;;25.50;18.52;;;9.60;71.40;;;;;;6190272;23;20020;-85
2022/03/15 10:56:07;;;;;;;26.38;19.25;;;9.60;71.30;;;;;;6190500;23;20009;-85
2022/03/15 10:58:34;;;;;;;33.70;23.20;;;9.70;71.50;;;;;;6217263;23;20047;-85
2022/03/15 11:01:00;;;;;;;34.10;22.58;;;9.80;71.40;;;;;;6190457;23;20345;-86
2022/03/15 11:03:29;;;;;;;23.17;17.80;;;10.20;71.50;;;;;;6190200;23;20017;-85
2022/03/15 11:05:57;;;;;;;30.50;20.20;;;9.90;71.10;;;;;;6190496;23;20441;-86
2022/03/15 11:08:24;;;;;;;23.92;17.33;;;10.20;71.20;;;;;;6217359;23;20028;-86
2022/03/15 11:10:52;;;;;;;25.52;17.25;;;10.10;70.90;;;;;;6190553;23;20436;-86
2022/03/15 11:13:18;;;;;;;24.45;17.75;;;10.10;70.60;;;;;;6190535;23;20019;-86
2022/03/15 11:15:49;;;;;;;22.63;17.92;;;10.20;70.80;;;;;;6189871;23;20048;-86
2022/03/15 11:18:17;;;;;;;25.63;18.33;;;10.20;70.30;;;;;;6217340;23;20415;-86
2022/03/15 11:20:45;;;;;;;24.70;19.25;;;10.30;70.20;;;;;;6217269;23;20020;-86
2022/03/15 11:23:13;;;;;;;23.80;15.73;;;10.40;70.20;;;;;;6190253;23;20451;-86
2022/03/15 11:25:43;;;;;;;21.38;14.85;;;10.50;70.00;;;;;;6190224;23;20463;-86
2022/03/15 11:28:12;;;;;;;23.05;15.52;;;10.50;69.50;;;;;;6190315;23;20055;-86
2022/03/15 11:30:39;;;;;;;23.88;14.15;;;10.60;69.10;;;;;;6216747;23;20314;-86
2022/03/15 11:33:06;;;;;;;22.77;14.73;;;10.70;68.60;;;;;;6217447;23;20016;-86
2022/03/15 11:35:33;;;;;;;21.85;14.93;;;10.70;68.30;;;;;;6190066;23;20020;-86
2022/03/15 11:38:01;;;;;;;21.80;13.80;;;11.00;68.20;;;;;;6216889;23;20024;-86
2022/03/15 11:40:27;;;;;;;19.70;12.85;;;10.80;67.60;;;;;;6190146;23;20017;-86
2022/03/15 11:43:04;;;;;;;18.60;11.77;;;11.00;67.60;;;;;;6217190;23;20019;-86
2022/03/15 11:45:42;;;;;;;17.80;12.68;;;10.90;67.20;;;;;;6190233;23;20024;-86
2022/03/15 11:48:25;;;;;;;19.73;13.18;;;11.10;66.10;;;;;;6215823;23;20071;-85
2022/03/15 11:51:41;;;;;;;25.08;14.07;;;11.10;66.00;;;;;;6189965;23;20040;-86
2022/03/15 11:54:12;;;;;;;22.27;13.85;;;11.10;66.00;;;;;;6095469;23;20022;-86
2022/03/15 11:56:49;;;;;;;21.75;14.27;;;11.10;65.30;;;;;;6071815;23;20057;-86
2022/03/15 11:59:16;;;;;;;19.33;13.32;;;11.20;65.20;;;;;;6071526;23;20064;-85
2022/03/15 12:01:49;;;;;;;18.80;13.63;;;11.10;65.10;;;;;;6095797;23;20018;-85
2022/03/15 12:04:17;;;;;;;19.83;14.20;;;11.20;65.00;;;;;;6071747;23;20078;-86
2022/03/15 12:07:02;;;;;;;18.95;13.65;;;11.20;65.20;;;;;;6095747;23;20431;-86
2022/03/15 12:09:49;;;;;;;20.23;12.82;;;11.20;65.10;;;;;;6095417;23;20018;-86
2022/03/15 12:12:18;;;;;;;26.55;13.98;;;11.20;65.10;;;;;;6095235;23;20439;-86
2022/03/15 12:14:52;;;;;;;22.02;14.60;;;11.30;65.20;;;;;;6071028;23;20046;-86
2022/03/15 12:17:20;;;;;;;23.33;14.20;;;11.20;65.10;;;;;;6095593;23;20034;-86
2022/03/15 12:19:48;;;;;;;20.48;14.57;;;11.30;65.30;;;;;;6071464;23;20436;-86
2022/03/15 12:22:41;;;;;;;22.75;14.80;;;11.40;65.20;;;;;;6071388;23;20376;-87
2022/03/15 12:25:10;;;;;;;23.02;15.55;;;11.40;65.00;;;;;;6138483;23;20025;-86
2022/03/15 12:27:46;;;;;;;21.13;15.05;;;11.40;65.10;;;;;;6216354;23;20104;-86
2022/03/15 12:30:18;;;;;;;20.65;15.20;;;11.40;65.10;;;;;;6189943;23;20024;-86
2022/03/15 12:32:51;;;;;;;23.38;16.92;;;11.50;65.30;;;;;;6164814;23;20020;-86
2022/03/15 12:35:17;;;;;;;19.23;14.88;;;11.50;65.40;;;;;;6204393;23;20020;-86
2022/03/15 12:37:42;;;;;;;21.38;15.68;;;11.50;65.30;;;;;;6241484;23;20027;-85
2022/03/15 12:40:10;;;;;;;46.70;22.17;;;11.80;65.20;;;;;;6189569;23;20027;-86
2022/03/15 12:42:40;;;;;;;24.85;15.50;;;11.60;65.00;;;;;;6215756;23;20020;-87
2022/03/15 12:45:12;;;;;;;26.45;17.33;;;11.60;65.00;;;;;;6242817;23;20024;-88